Latest Weather Observations for Hogan Island

IDT60801

Issued at 5:01 pm EDT Monday 8 February 2016 (issued every 30 minutes, with the page automatically refreshed every 10 minutes)

About weather observations | Map of weather stations | Latest weather observations for TAS | Other Formats
Station Details ID: 200838 Name: HOGAN ISLAND Lat: -39.22 Lon: 146.98 Height: 116.0 m
Data from the previous 72 hours. | See also: Recent months at Hogan Island
Date/Time
EDT
Temp
°C
App
Temp
°C
Dew
Point
Rel
Hum
%
Delta-T
°C
Wind Press
QNH
hPa
Press
MSL
hPa
Rain
since 9 am
mm
Dir
 
Spd
km/h
Gust
km/h
Spd
kts
Gust
kts
08/05:00pm 20.3 11.4 14.2 68 3.5 W 54 63 29 34 1019.5 - 0.0
08/04:30pm 20.5 12.0 14.2 67 3.7 W 52 61 28 33 1019.9 - 0.0
08/04:00pm 21.3 13.8 14.9 67 3.8 W 48 54 26 29 1020.0 - 0.0
08/03:30pm 21.2 13.5 14.4 65 4.0 W 48 57 26 31 1020.1 - 0.0
08/03:00pm 21.2 13.5 14.4 65 4.0 W 48 56 26 30 1020.2 1019.9 0.0
08/02:30pm 21.2 13.9 14.4 65 4.0 W 46 54 25 29 1020.3 - 0.0
08/02:00pm 21.5 14.4 14.9 66 3.9 WSW 46 54 25 29 1020.4 - 0.0
08/01:30pm 21.3 14.7 15.4 69 3.5 WSW 44 52 24 28 1020.6 - 0.0
08/01:00pm 21.6 15.3 16.1 71 3.3 WSW 44 52 24 28 1020.6 - 0.0
08/12:30pm 21.6 15.4 16.3 72 3.2 WSW 44 50 24 27 1020.6 - 0.0
08/12:00pm 21.6 15.8 17.0 75 2.8 WSW 43 50 23 27 1020.6 1020.3 0.0
08/11:30am 21.5 16.0 16.7 74 2.9 WSW 41 48 22 26 1020.6 - 0.0
08/11:00am 20.9 14.8 16.3 75 2.8 WSW 43 50 23 27 1020.5 - 0.0
08/10:30am 21.0 15.8 17.4 80 2.2 W 41 48 22 26 1020.4 - 0.0
08/10:00am 20.0 14.6 17.0 83 1.8 W 41 44 22 24 1020.3 - 0.0
08/09:30am 20.1 14.9 16.5 80 2.2 W 39 44 21 24 1020.1 - 0.0
08/09:00am 19.2 14.1 15.9 81 2.0 W 37 41 20 22 1020.0 1019.7 0.0
08/08:30am 18.6 12.9 15.1 80 2.1 W 39 44 21 24 1019.7 - 0.0
08/08:00am 18.1 11.6 15.0 82 1.8 W 43 46 23 25 1019.3 - 0.0
08/07:30am 17.6 12.0 14.5 82 1.8 WSW 37 43 20 23 1019.3 - 0.0
08/07:00am 17.4 12.3 14.7 84 1.6 W 35 41 19 22 1019.1 - 0.0
08/06:30am 17.4 11.1 14.7 84 1.6 W 41 44 22 24 1018.8 - 0.0
08/06:00am 17.4 11.2 14.9 85 1.5 W 41 44 22 24 1018.7 1018.5 0.0
08/05:30am 17.6 11.1 15.2 86 1.4 WSW 43 50 23 27 1018.4 - 0.0
08/05:00am 17.8 11.6 16.0 89 1.1 W 43 48 23 26 1018.3 - 0.0
08/04:30am 17.8 12.5 16.3 91 0.9 WSW 39 46 21 25 1018.1 - 0.0
08/04:00am 17.7 12.8 16.4 92 0.8 WSW 37 41 20 22 1018.0 - 0.0
08/03:30am 18.0 14.1 16.9 93 0.7 WSW 33 39 18 21 1018.0 - 0.0
08/03:00am 17.8 13.8 16.8 94 0.6 WSW 33 37 18 20 1018.1 1017.9 0.0
08/02:30am 18.3 14.3 17.5 95 0.5 WSW 35 41 19 22 1018.3 - 0.0
08/02:00am 18.4 14.9 17.9 97 0.3 W 33 37 18 20 1018.3 - 0.0
08/01:00am 18.8 15.7 18.3 97 0.3 W 32 37 17 20 1018.5 - 0.0
08/12:30am 19.2 18.1 18.7 97 0.3 WNW 22 24 12 13 1018.3 - 0.0
08/12:00am 19.1 18.6 18.6 97 0.3 NW 19 20 10 11 1018.2 1018.0 0.0
 
Date/Time
EDT
Temp
°C
App
Temp
°C
Dew
Point
Rel
Hum
%
Delta-T
°C
Wind Press
QNH
hPa
Press
MSL
hPa
Rain
since 9 am
mm
Dir
 
Spd
km/h
Gust
km/h
Spd
kts
Gust
kts
07/11:30pm 18.9 18.3 18.4 97 0.3 NNW 19 20 10 11 1018.3 - 0.0
07/11:00pm 19.0 18.3 18.3 96 0.4 NNW 19 20 10 11 1018.1 - 0.0
07/10:30pm 19.0 18.3 18.3 96 0.4 N 19 20 10 11 1018.2 - 0.0
07/10:00pm 18.8 18.4 18.0 95 0.5 N 17 20 9 11 1018.3 - 0.0
07/09:30pm 18.6 17.7 17.8 95 0.5 N 19 19 10 10 1018.0 - 0.0
07/09:00pm 18.6 18.0 17.6 94 0.6 NNE 17 19 9 10 1017.7 1017.5 0.0
07/08:30pm 18.8 18.6 17.5 92 0.8 NNE 15 17 8 9 1017.5 - 0.0
07/08:00pm 19.3 19.0 17.4 89 1.2 ENE 15 17 8 9 1017.4 - 0.0
07/07:30pm 20.1 20.3 17.7 86 1.5 ENE 13 15 7 8 1017.2 - 0.0
07/07:00pm 20.8 19.9 17.8 83 1.9 ENE 19 20 10 11 1016.9 - 0.0
07/06:30pm 21.5 21.1 18.1 81 2.1 E 17 20 9 11 1016.6 - 0.0
07/06:00pm 21.6 20.7 17.8 79 2.4 E 19 20 10 11 1016.6 1016.3 0.0
07/05:30pm 21.9 20.8 17.7 77 2.6 E 20 24 11 13 1016.5 - 0.0
07/05:00pm 22.3 21.0 18.1 77 2.6 E 22 26 12 14 1016.6 - 0.0
07/04:30pm 22.5 21.2 18.1 76 2.8 E 22 26 12 14 1016.6 - 0.0
07/04:00pm 22.6 21.7 18.2 76 2.8 E 20 24 11 13 1016.8 - 0.0
07/03:30pm 23.1 22.2 18.2 74 3.1 ENE 20 24 11 13 1016.9 - 0.0
07/03:00pm 22.9 21.5 18.0 74 3.1 ENE 22 26 12 14 1016.9 1016.6 0.0
07/02:30pm 23.4 21.6 17.8 71 3.5 ENE 24 28 13 15 1017.0 - 0.0
07/02:00pm 22.9 21.1 17.8 73 3.2 ENE 24 33 13 18 1016.9 - 0.0
07/01:30pm 23.6 21.7 18.5 73 3.2 E 26 30 14 16 1017.0 - 0.0
07/01:00pm 23.1 21.4 18.0 73 3.2 E 24 30 13 16 1017.1 - 0.0
07/12:30pm 23.3 22.0 18.2 73 3.2 E 22 26 12 14 1017.2 - 0.0
07/12:00pm 23.0 22.1 18.3 75 3.0 E 20 26 11 14 1017.3 1017.0 0.0
07/11:30am 22.3 21.1 17.4 74 3.0 E 20 26 11 14 1017.6 - 0.0
07/11:00am 22.0 20.8 17.4 75 2.8 E 20 24 11 13 1017.6 - 0.0
07/10:30am 22.2 20.9 17.3 74 3.0 E 20 26 11 14 1017.5 - 0.0
07/10:00am 22.2 21.0 17.6 75 2.9 E 20 26 11 14 1017.3 - 0.0
07/09:30am 21.6 20.4 17.6 78 2.5 ENE 20 24 11 13 1017.2 - 0.0
07/09:00am 21.4 20.4 18.0 81 2.1 E 20 26 11 14 1017.2 1016.9 0.0
07/08:30am 20.6 19.0 17.4 82 2.0 ENE 22 26 12 14 1016.9 - 0.0
07/08:00am 20.0 18.7 17.2 84 1.7 E 20 22 11 12 1016.8 - 0.0
07/07:30am 19.3 18.1 17.6 90 1.0 ENE 20 22 11 12 1016.6 - 0.0
07/07:00am 18.2 17.0 17.0 93 0.7 ENE 19 20 10 11 1016.4 - 0.0
07/06:30am 17.8 16.2 16.5 92 0.8 ENE 20 24 11 13 1016.2 - 0.0
07/06:00am 18.0 14.5 16.5 91 0.9 ENE 30 35 16 19 1015.8 1015.5 0.0
07/05:30am 18.0 14.0 16.7 92 0.8 ENE 33 37 18 20 1015.3 - 0.0
07/05:00am 18.1 13.8 16.8 92 0.8 ENE 35 39 19 21 1015.3 - 0.0
07/04:30am 18.1 14.3 16.8 92 0.8 ENE 32 37 17 20 1015.5 - 0.0
07/04:00am 18.1 14.7 16.8 92 0.8 ENE 30 33 16 18 1015.7 - 0.0
07/03:30am 18.1 14.7 16.8 92 0.8 ENE 30 33 16 18 1016.0 - 0.0
07/03:00am 18.2 15.2 16.7 91 0.9 ENE 28 32 15 17 1016.3 1016.0 0.0
07/02:30am 18.2 14.7 16.5 90 1.0 ENE 30 33 16 18 1016.3 - 0.0
07/02:00am 18.3 14.5 16.6 90 1.0 ENE 32 35 17 19 1016.5 - 0.0
07/01:30am 18.4 14.4 16.6 89 1.1 ENE 33 37 18 20 1016.7 - 0.0
07/01:00am 18.3 14.1 16.3 88 1.2 ENE 33 37 18 20 1017.0 - 0.0
07/12:30am 18.5 14.0 16.5 88 1.2 ENE 35 41 19 22 1017.1 - 0.0
07/12:00am 18.5 13.1 16.1 86 1.4 ENE 39 43 21 23 1017.2 1016.9 0.0
 
Date/Time
EDT
Temp
°C
App
Temp
°C
Dew
Point
Rel
Hum
%
Delta-T
°C
Wind Press
QNH
hPa
Press
MSL
hPa
Rain
since 9 am
mm
Dir
 
Spd
km/h
Gust
km/h
Spd
kts
Gust
kts
06/11:30pm 18.4 13.7 15.8 85 1.5 ENE 35 39 19 21 1017.6 - 0.0
06/11:00pm 18.5 13.9 16.1 86 1.4 ENE 35 41 19 22 1017.7 - 0.0
06/10:30pm 18.5 13.5 16.1 86 1.4 ENE 37 41 20 22 1017.8 - 0.0
06/10:00pm 18.6 13.7 16.4 87 1.3 ENE 37 43 20 23 1017.8 - 0.0
06/09:30pm 18.6 13.7 16.4 87 1.3 ENE 37 43 20 23 1017.5 - 0.0
06/09:00pm 18.6 14.1 16.4 87 1.3 ENE 35 41 19 22 1017.5 1017.2 0.0
06/08:30pm 18.6 14.4 16.2 86 1.4 ENE 33 37 18 20 1017.5 - 0.0
06/08:00pm 19.0 14.4 16.2 84 1.7 ENE 35 39 19 21 1017.4 - 0.0
06/07:30pm 19.4 14.4 16.2 82 1.9 ENE 37 43 20 23 1017.1 - 0.0
06/07:00pm 19.9 15.0 16.3 80 2.2 ENE 37 43 20 23 1016.9 - 0.0
06/06:30pm 20.6 15.8 16.6 78 2.4 ENE 37 43 20 23 1016.7 - 0.0
06/06:00pm 20.9 15.8 16.7 77 2.6 E 39 46 21 25 1016.9 1016.6 0.0
06/05:30pm 21.4 16.8 17.2 77 2.6 ENE 37 44 20 24 1017.1 - 0.0
06/05:00pm 21.8 17.8 17.6 77 2.6 ENE 35 39 19 21 1017.4 - 0.0
06/04:30pm 22.2 17.9 17.8 76 2.7 ENE 37 43 20 23 1017.3 - 0.0
06/04:00pm 22.4 18.3 17.3 73 3.2 ENE 35 39 19 21 1017.6 - 0.0
06/03:30pm 22.7 19.1 17.6 73 3.2 ENE 33 37 18 20 1017.9 - 0.0
06/03:00pm 23.1 19.7 17.8 72 3.3 ENE 32 35 17 19 1018.2 1018.0 0.0
06/02:30pm 23.0 19.4 17.7 72 3.3 ENE 33 39 18 21 1018.2 - 0.0
06/02:00pm 22.7 19.2 17.4 72 3.3 ENE 32 35 17 19 1018.6 - 0.0
06/01:30pm 22.5 19.3 17.2 72 3.3 ENE 30 33 16 18 1018.9 - 0.0
06/01:00pm 23.2 20.3 17.9 72 3.3 ENE 30 33 16 18 1019.0 - 0.0
06/12:30pm 23.4 20.8 17.8 71 3.5 ENE 28 32 15 17 1019.4 - 0.0
06/12:00pm 23.6 20.7 18.0 71 3.5 ENE 30 33 16 18 1019.4 1019.2 0.0
06/11:30am 22.8 20.0 17.3 71 3.4 ENE 28 32 15 17 1019.7 - 0.0
06/11:00am 23.0 19.9 17.5 71 3.4 ENE 30 35 16 19 1019.7 - 0.0
06/10:30am 21.9 17.2 16.8 73 3.1 ENE 37 41 20 22 1019.4 - 0.0
06/10:00am 21.4 16.7 16.8 75 2.8 ENE 37 43 20 23 1019.5 - 0.0
06/09:30am 20.7 15.3 16.9 79 2.3 ENE 41 44 22 24 1019.5 - 0.0
06/09:00am 20.6 15.0 16.6 78 2.4 ENE 41 46 22 25 1019.5 1019.3 0.0
06/08:30am 20.4 15.8 17.0 81 2.1 ENE 37 43 20 23 1019.5 - 0.0
06/08:00am 19.4 13.6 15.9 80 2.1 ENE 41 44 22 24 1019.2 - 0.0
06/07:30am 18.7 13.2 15.8 83 1.7 ENE 39 44 21 24 1019.1 - 0.0
06/07:00am 18.0 12.7 15.3 84 1.6 ENE 37 41 20 22 1019.0 - 0.0
06/06:30am 17.5 12.3 14.6 83 1.7 ENE 35 41 19 22 1018.9 - 0.0
06/06:00am 17.4 11.7 14.3 82 1.8 ENE 37 43 20 23 1018.9 1018.7 0.0
06/05:30am 17.8 12.7 14.7 82 1.8 ENE 35 41 19 22 1018.8 - 0.0
06/05:00am 17.3 12.0 14.2 82 1.8 ENE 35 41 19 22 1018.9 - 0.0
06/04:30am 17.7 10.5 13.2 75 2.5 ENE 43 48 23 26 1019.1 - 0.0
06/04:00am 18.0 10.3 13.3 74 2.7 ENE 46 52 25 28 1019.3 - 0.0
06/03:30am 18.0 10.6 13.1 73 2.8 ENE 44 56 24 30 1019.4 - 0.0
06/03:00am 18.1 11.1 14.2 78 2.2 E 44 52 24 28 1019.6 1019.4 0.0
06/02:30am 17.9 11.5 14.2 79 2.1 E 41 48 22 26 1020.0 - 0.0
06/02:00am 17.9 10.4 13.8 77 2.3 E 46 57 25 31 1020.3 - 0.0
06/01:30am 18.0 10.6 14.1 78 2.2 E 46 54 25 29 1020.6 - 0.0
06/01:00am 18.0 10.9 14.1 78 2.2 E 44 54 24 29 1021.0 - 0.0
06/12:30am 17.9 11.4 14.0 78 2.2 E 41 46 22 25 1021.3 - 0.0
06/12:00am 17.6 11.0 13.7 78 2.2 ENE 41 46 22 25 1021.4 1021.1 0.0
 
Date/Time
EDT
Temp
°C
App
Temp
°C
Dew
Point
Rel
Hum
%
Delta-T
°C
Wind Press
QNH
hPa
Press
MSL
hPa
Rain
since 9 am
mm
Dir
 
Spd
km/h
Gust
km/h
Spd
kts
Gust
kts
05/11:30pm 17.7 11.1 13.6 77 2.3 ENE 41 46 22 25 1021.4 - 0.0
05/11:00pm 17.8 11.8 14.3 80 2.0 ENE 39 46 21 25 1021.6 - 0.0
05/10:30pm 17.8 11.1 14.5 81 1.9 ENE 43 50 23 27 1021.7 - 0.0
05/10:00pm 18.0 11.1 14.1 78 2.2 ENE 43 50 23 27 1021.7 - 0.0
05/09:30pm 17.9 11.4 14.0 78 2.2 ENE 41 48 22 26 1021.7 - 0.0
05/09:00pm 18.1 12.0 14.2 78 2.2 ENE 39 46 21 25 1021.5 1021.2 0.0
05/08:30pm 18.2 11.9 13.5 74 2.7 E 39 50 21 27 1021.3 - 0.0
05/08:00pm 18.5 12.5 13.4 72 2.9 E 37 48 20 26 1021.0 - 0.0
05/07:30pm 18.9 13.0 13.5 71 3.1 E 37 44 20 24 1020.9 - 0.0
05/07:00pm 19.3 13.6 14.1 72 3.0 ENE 37 41 20 22 1020.8 - 0.0
05/06:30pm 19.8 14.1 14.2 70 3.3 ENE 37 43 20 23 1020.6 - 0.0
05/06:00pm 20.4 15.1 14.3 68 3.6 ENE 35 39 19 21 1020.6 1020.3 0.0
05/05:30pm 20.8 15.3 13.7 64 4.1 ENE 35 39 19 21 1020.8 - 0.0

Other Formats:

Comma delimited format used in spreadsheet applications
http://www.bom.gov.au/fwo/IDT60801/IDT60801.94949.axf

JavaScript Object Notation format (JSON) in row-major order
http://www.bom.gov.au/fwo/IDT60801/IDT60801.94949.json